Hauptseite
METAR-TAF:

METAR-TAF

Flughäfen :

Brescia Ghedi, Italien

Militärflugplatz Ghedi

Breite: 45-25N, Länge: 010-17E, Höhe: 102 m

Beobachtung

Neuester Wetterbericht von vor 50 Minuten, um 22:55 UTC
Temperatur 0°C
Luftfeuchtigkeit 93%
Luftdruck 1010 hPa
Sichtweite 10 km oder mehr
keine Wolken unter 1500 m und keine Kumulonimbus oder Gewitterwolken

METAR: LIPL 182255Z /////KT CAVOK 00/M01 Q1010 RMK SKC VIS MIN 9999 WIND THR31 00000KT BLU

Zeit: 00:45 (23:45 UTC)

Prognose

Neuester Wetterbericht von vor 45 Minuten, um 23:00 UTC
Gültige Prognose vom 19 um 00 UTC bis 19 um 09 UTC
Wind 3 kt aus unterschiedlichen Richtungen
Sichtweite 10 km oder mehr
keine Wolken unter 1500 m und keine Kumulonimbus oder Gewitterwolken
Wahrscheinlichkeit 40% :
Zeitweise
vom 19 um 03 UTC bis 19 um 06 UTC
Sichtweite: 5000 m
feuchter Dunst

TAF: LIPL 182300Z 1900/1909 VRB03KT CAVOK PROB40 TEMPO 1903/1906 5000 BR

Wetterbeobachtungen und Prognosen von mehr als 4000 Flughäfen (METAR und TAF Bericht).

Die verfügbaren Stationen werden durch gelbe und rote Markierungen auf der Karte dargestellt.

Führen Sie die Maus auf sie, um den Namen der Station zu sehen.

Darauf klicken, um die Beobachtung von Wetterbeobachtungen und Prognosen zu sehen.

Um die Karte zu ändern : klicken Sie auf den grünen Tasten mit einem schwarzen Kreuz Zum Vergrößern, auf den grünen Button mit einem Gedankenstrich zu verkleinern, oder auf die grünen Pfeile für benachbarte Karten.


METAR-TAF: